sensor_id;sensor_type;location;lat;lon;timestamp;P1;durP1;ratioP1;P2;durP2;ratioP2
2061;SDS011;11070;51.336;12.340;2023-07-29T00:01:50;3.40;;;3.20;;
2061;SDS011;11070;51.336;12.340;2023-07-29T00:04:17;3.25;;;3.05;;
2061;SDS011;11070;51.336;12.340;2023-07-29T00:06:42;3.30;;;3.10;;
2061;SDS011;11070;51.336;12.340;2023-07-29T00:09:08;3.30;;;3.10;;
2061;SDS011;11070;51.336;12.340;2023-07-29T00:11:34;2.83;;;2.63;;
2061;SDS011;11070;51.336;12.340;2023-07-29T00:14:00;6.47;;;2.85;;
2061;SDS011;11070;51.336;12.340;2023-07-29T00:16:26;2.63;;;2.53;;
2061;SDS011;11070;51.336;12.340;2023-07-29T00:18:52;2.80;;;2.70;;
2061;SDS011;11070;51.336;12.340;2023-07-29T00:21:18;2.93;;;2.63;;
2061;SDS011;11070;51.336;12.340;2023-07-29T00:23:43;2.73;;;2.53;;
2061;SDS011;11070;51.336;12.340;2023-07-29T00:26:10;3.83;;;2.78;;
2061;SDS011;11070;51.336;12.340;2023-07-29T00:28:35;2.93;;;2.83;;
2061;SDS011;11070;51.336;12.340;2023-07-29T00:31:01;2.50;;;2.40;;
2061;SDS011;11070;51.336;12.340;2023-07-29T00:33:27;2.55;;;2.45;;
2061;SDS011;11070;51.336;12.340;2023-07-29T00:35:53;2.80;;;2.70;;
2061;SDS011;11070;51.336;12.340;2023-07-29T00:38:18;3.17;;;2.23;;
2061;SDS011;11070;51.336;12.340;2023-07-29T00:40:44;2.90;;;2.60;;
2061;SDS011;11070;51.336;12.340;2023-07-29T00:43:10;4.95;;;2.65;;
2061;SDS011;11070;51.336;12.340;2023-07-29T00:45:36;2.70;;;2.50;;
2061;SDS011;11070;51.336;12.340;2023-07-29T00:48:03;2.92;;;2.65;;
2061;SDS011;11070;51.336;12.340;2023-07-29T00:50:30;2.42;;;2.33;;
2061;SDS011;11070;51.336;12.340;2023-07-29T00:52:56;2.38;;;2.28;;
2061;SDS011;11070;51.336;12.340;2023-07-29T00:55:22;2.60;;;2.50;;
2061;SDS011;11070;51.336;12.340;2023-07-29T00:57:50;6.07;;;2.45;;
2061;SDS011;11070;51.336;12.340;2023-07-29T01:00:19;2.53;;;2.30;;
2061;SDS011;11070;51.336;12.340;2023-07-29T01:02:45;2.58;;;2.47;;
2061;SDS011;11070;51.336;12.340;2023-07-29T01:05:11;2.50;;;2.40;;
2061;SDS011;11070;51.336;12.340;2023-07-29T01:07:41;2.80;;;2.60;;
2061;SDS011;11070;51.336;12.340;2023-07-29T01:10:13;2.63;;;2.45;;
2061;SDS011;11070;51.336;12.340;2023-07-29T01:13:19;2.92;;;2.70;;
2061;SDS011;11070;51.336;12.340;2023-07-29T01:15:54;2.85;;;2.75;;
2061;SDS011;11070;51.336;12.340;2023-07-29T01:18:25;2.65;;;2.45;;
2061;SDS011;11070;51.336;12.340;2023-07-29T01:20:56;3.10;;;2.70;;
2061;SDS011;11070;51.336;12.340;2023-07-29T01:23:31;2.90;;;2.80;;
2061;SDS011;11070;51.336;12.340;2023-07-29T01:25:58;2.72;;;2.53;;
2061;SDS011;11070;51.336;12.340;2023-07-29T01:28:24;3.00;;;2.90;;
2061;SDS011;11070;51.336;12.340;2023-07-29T01:30:51;3.08;;;2.97;;
2061;SDS011;11070;51.336;12.340;2023-07-29T01:33:26;3.10;;;2.90;;
2061;SDS011;11070;51.336;12.340;2023-07-29T01:35:58;3.90;;;3.70;;
2061;SDS011;11070;51.336;12.340;2023-07-29T01:38:29;3.28;;;3.00;;
2061;SDS011;11070;51.336;12.340;2023-07-29T01:40:58;3.10;;;2.90;;
2061;SDS011;11070;51.336;12.340;2023-07-29T01:43:30;2.83;;;2.60;;
2061;SDS011;11070;51.336;12.340;2023-07-29T01:45:57;2.90;;;2.70;;
2061;SDS011;11070;51.336;12.340;2023-07-29T01:48:22;3.10;;;2.90;;
2061;SDS011;11070;51.336;12.340;2023-07-29T01:50:48;2.63;;;2.53;;
2061;SDS011;11070;51.336;12.340;2023-07-29T01:53:14;2.67;;;2.57;;
2061;SDS011;11070;51.336;12.340;2023-07-29T01:55:40;2.57;;;2.47;;
2061;SDS011;11070;51.336;12.340;2023-07-29T01:58:06;2.92;;;2.75;;
2061;SDS011;11070;51.336;12.340;2023-07-29T02:00:32;2.50;;;2.40;;
2061;SDS011;11070;51.336;12.340;2023-07-29T02:02:58;2.63;;;2.43;;
2061;SDS011;11070;51.336;12.340;2023-07-29T02:05:23;2.70;;;2.60;;
2061;SDS011;11070;51.336;12.340;2023-07-29T02:07:49;2.87;;;2.67;;
2061;SDS011;11070;51.336;12.340;2023-07-29T02:10:15;4.17;;;2.73;;
2061;SDS011;11070;51.336;12.340;2023-07-29T02:12:41;2.83;;;2.73;;
2061;SDS011;11070;51.336;12.340;2023-07-29T02:15:06;3.67;;;2.77;;
2061;SDS011;11070;51.336;12.340;2023-07-29T02:17:33;2.47;;;2.38;;
2061;SDS011;11070;51.336;12.340;2023-07-29T02:19:59;2.88;;;2.65;;
2061;SDS011;11070;51.336;12.340;2023-07-29T02:22:25;2.83;;;2.63;;
2061;SDS011;11070;51.336;12.340;2023-07-29T02:24:50;2.73;;;2.63;;
2061;SDS011;11070;51.336;12.340;2023-07-29T02:27:16;2.97;;;2.77;;
2061;SDS011;11070;51.336;12.340;2023-07-29T02:29:42;3.27;;;3.10;;
2061;SDS011;11070;51.336;12.340;2023-07-29T02:32:07;3.00;;;2.90;;
2061;SDS011;11070;51.336;12.340;2023-07-29T02:34:33;2.85;;;2.65;;
2061;SDS011;11070;51.336;12.340;2023-07-29T02:36:59;2.90;;;2.80;;
2061;SDS011;11070;51.336;12.340;2023-07-29T02:39:25;2.87;;;2.77;;
2061;SDS011;11070;51.336;12.340;2023-07-29T02:41:51;2.63;;;2.53;;
2061;SDS011;11070;51.336;12.340;2023-07-29T02:44:16;2.80;;;2.70;;
2061;SDS011;11070;51.336;12.340;2023-07-29T02:46:42;2.55;;;2.45;;
2061;SDS011;11070;51.336;12.340;2023-07-29T02:49:08;3.00;;;2.80;;
2061;SDS011;11070;51.336;12.340;2023-07-29T02:51:34;2.93;;;2.77;;
2061;SDS011;11070;51.336;12.340;2023-07-29T02:53:59;4.33;;;2.70;;
2061;SDS011;11070;51.336;12.340;2023-07-29T02:56:25;3.00;;;2.90;;
2061;SDS011;11070;51.336;12.340;2023-07-29T02:58:51;3.43;;;2.97;;
2061;SDS011;11070;51.336;12.340;2023-07-29T03:01:17;2.90;;;2.70;;
2061;SDS011;11070;51.336;12.340;2023-07-29T03:03:43;3.00;;;2.80;;
2061;SDS011;11070;51.336;12.340;2023-07-29T03:06:09;2.90;;;2.70;;
2061;SDS011;11070;51.336;12.340;2023-07-29T03:08:36;3.20;;;3.00;;
2061;SDS011;11070;51.336;12.340;2023-07-29T03:11:08;3.10;;;2.90;;
2061;SDS011;11070;51.336;12.340;2023-07-29T03:13:36;3.10;;;2.90;;
2061;SDS011;11070;51.336;12.340;2023-07-29T03:16:09;2.88;;;2.78;;
2061;SDS011;11070;51.336;12.340;2023-07-29T03:18:36;3.00;;;2.80;;
2061;SDS011;11070;51.336;12.340;2023-07-29T03:21:02;3.47;;;3.23;;
2061;SDS011;11070;51.336;12.340;2023-07-29T03:23:29;3.08;;;2.88;;
2061;SDS011;11070;51.336;12.340;2023-07-29T03:25:55;2.90;;;2.70;;
2061;SDS011;11070;51.336;12.340;2023-07-29T03:28:29;4.80;;;3.10;;
2061;SDS011;11070;51.336;12.340;2023-07-29T03:30:57;3.05;;;2.95;;
2061;SDS011;11070;51.336;12.340;2023-07-29T03:33:24;2.70;;;2.60;;
2061;SDS011;11070;51.336;12.340;2023-07-29T03:35:50;3.35;;;3.15;;
2061;SDS011;11070;51.336;12.340;2023-07-29T03:38:16;3.33;;;3.13;;
2061;SDS011;11070;51.336;12.340;2023-07-29T03:40:42;3.43;;;3.13;;
2061;SDS011;11070;51.336;12.340;2023-07-29T03:43:08;3.35;;;3.15;;
2061;SDS011;11070;51.336;12.340;2023-07-29T03:45:34;3.47;;;3.20;;
2061;SDS011;11070;51.336;12.340;2023-07-29T03:48:01;4.35;;;4.05;;
2061;SDS011;11070;51.336;12.340;2023-07-29T03:50:28;4.20;;;3.90;;
2061;SDS011;11070;51.336;12.340;2023-07-29T03:52:54;3.40;;;3.30;;
2061;SDS011;11070;51.336;12.340;2023-07-29T03:55:21;3.95;;;3.70;;
2061;SDS011;11070;51.336;12.340;2023-07-29T03:57:46;4.60;;;3.93;;
2061;SDS011;11070;51.336;12.340;2023-07-29T04:00:12;4.30;;;3.90;;
2061;SDS011;11070;51.336;12.340;2023-07-29T04:02:38;4.17;;;3.90;;
2061;SDS011;11070;51.336;12.340;2023-07-29T04:05:04;3.90;;;3.70;;
2061;SDS011;11070;51.336;12.340;2023-07-29T04:07:33;4.53;;;4.13;;
2061;SDS011;11070;51.336;12.340;2023-07-29T04:09:59;4.20;;;4.00;;
2061;SDS011;11070;51.336;12.340;2023-07-29T04:12:25;4.13;;;3.83;;
2061;SDS011;11070;51.336;12.340;2023-07-29T04:14:51;4.43;;;4.13;;
2061;SDS011;11070;51.336;12.340;2023-07-29T04:17:17;4.20;;;3.90;;
2061;SDS011;11070;51.336;12.340;2023-07-29T04:19:42;4.17;;;3.70;;
2061;SDS011;11070;51.336;12.340;2023-07-29T04:22:08;3.70;;;3.50;;
2061;SDS011;11070;51.336;12.340;2023-07-29T04:24:34;3.80;;;3.60;;
2061;SDS011;11070;51.336;12.340;2023-07-29T04:26:59;4.00;;;3.80;;
2061;SDS011;11070;51.336;12.340;2023-07-29T04:29:25;4.00;;;3.80;;
2061;SDS011;11070;51.336;12.340;2023-07-29T04:31:51;4.53;;;4.23;;
2061;SDS011;11070;51.336;12.340;2023-07-29T04:34:20;4.90;;;4.50;;
2061;SDS011;11070;51.336;12.340;2023-07-29T04:36:46;4.03;;;3.83;;
2061;SDS011;11070;51.336;12.340;2023-07-29T04:39:12;4.32;;;4.05;;
2061;SDS011;11070;51.336;12.340;2023-07-29T04:41:37;4.80;;;3.90;;
2061;SDS011;11070;51.336;12.340;2023-07-29T04:44:03;4.47;;;4.20;;
2061;SDS011;11070;51.336;12.340;2023-07-29T04:46:29;4.50;;;4.20;;
2061;SDS011;11070;51.336;12.340;2023-07-29T04:48:55;3.70;;;3.50;;
2061;SDS011;11070;51.336;12.340;2023-07-29T04:51:20;3.67;;;3.37;;
2061;SDS011;11070;51.336;12.340;2023-07-29T04:53:47;4.07;;;3.78;;
2061;SDS011;11070;51.336;12.340;2023-07-29T04:56:13;3.65;;;3.45;;
2061;SDS011;11070;51.336;12.340;2023-07-29T04:58:39;3.57;;;3.37;;
2061;SDS011;11070;51.336;12.340;2023-07-29T05:01:04;3.67;;;3.47;;
2061;SDS011;11070;51.336;12.340;2023-07-29T05:03:30;3.17;;;2.97;;
2061;SDS011;11070;51.336;12.340;2023-07-29T05:05:57;3.10;;;2.90;;
2061;SDS011;11070;51.336;12.340;2023-07-29T05:08:25;2.83;;;2.60;;
2061;SDS011;11070;51.336;12.340;2023-07-29T05:10:51;3.13;;;3.03;;
2061;SDS011;11070;51.336;12.340;2023-07-29T05:13:18;2.83;;;2.72;;
2061;SDS011;11070;51.336;12.340;2023-07-29T05:15:44;3.30;;;3.03;;
2061;SDS011;11070;51.336;12.340;2023-07-29T05:18:10;3.17;;;2.97;;
2061;SDS011;11070;51.336;12.340;2023-07-29T05:20:36;3.00;;;2.80;;
2061;SDS011;11070;51.336;12.340;2023-07-29T05:23:02;2.97;;;2.80;;
2061;SDS011;11070;51.336;12.340;2023-07-29T05:25:28;3.10;;;2.83;;
2061;SDS011;11070;51.336;12.340;2023-07-29T05:27:54;3.03;;;2.83;;
2061;SDS011;11070;51.336;12.340;2023-07-29T05:30:20;2.93;;;2.73;;
2061;SDS011;11070;51.336;12.340;2023-07-29T05:32:45;2.73;;;2.63;;
2061;SDS011;11070;51.336;12.340;2023-07-29T05:35:11;2.60;;;2.50;;
2061;SDS011;11070;51.336;12.340;2023-07-29T05:37:40;3.00;;;2.90;;
2061;SDS011;11070;51.336;12.340;2023-07-29T05:40:06;2.70;;;2.50;;
2061;SDS011;11070;51.336;12.340;2023-07-29T05:42:33;2.97;;;2.78;;
2061;SDS011;11070;51.336;12.340;2023-07-29T05:44:59;3.30;;;3.10;;
2061;SDS011;11070;51.336;12.340;2023-07-29T05:47:25;3.23;;;3.03;;
2061;SDS011;11070;51.336;12.340;2023-07-29T05:49:51;2.70;;;2.60;;
2061;SDS011;11070;51.336;12.340;2023-07-29T05:52:17;3.10;;;3.00;;
2061;SDS011;11070;51.336;12.340;2023-07-29T05:54:43;3.20;;;3.00;;
2061;SDS011;11070;51.336;12.340;2023-07-29T05:57:09;3.40;;;3.20;;
2061;SDS011;11070;51.336;12.340;2023-07-29T05:59:36;3.78;;;3.00;;
2061;SDS011;11070;51.336;12.340;2023-07-29T06:02:02;2.73;;;2.63;;
2061;SDS011;11070;51.336;12.340;2023-07-29T06:04:28;3.10;;;2.90;;
2061;SDS011;11070;51.336;12.340;2023-07-29T06:06:54;3.30;;;3.20;;
2061;SDS011;11070;51.336;12.340;2023-07-29T06:09:20;3.05;;;2.88;;
2061;SDS011;11070;51.336;12.340;2023-07-29T06:11:50;2.97;;;2.88;;
2061;SDS011;11070;51.336;12.340;2023-07-29T06:14:16;3.23;;;2.93;;
2061;SDS011;11070;51.336;12.340;2023-07-29T06:16:42;3.03;;;2.93;;
2061;SDS011;11070;51.336;12.340;2023-07-29T06:19:07;3.13;;;2.77;;
2061;SDS011;11070;51.336;12.340;2023-07-29T06:21:34;2.75;;;2.65;;
2061;SDS011;11070;51.336;12.340;2023-07-29T06:23:59;3.20;;;3.10;;
2061;SDS011;11070;51.336;12.340;2023-07-29T06:26:25;3.90;;;3.70;;
2061;SDS011;11070;51.336;12.340;2023-07-29T06:28:51;3.73;;;3.43;;
2061;SDS011;11070;51.336;12.340;2023-07-29T06:31:17;3.00;;;2.90;;
2061;SDS011;11070;51.336;12.340;2023-07-29T06:33:42;3.10;;;3.00;;
2061;SDS011;11070;51.336;12.340;2023-07-29T06:36:08;3.37;;;3.17;;
2061;SDS011;11070;51.336;12.340;2023-07-29T06:38:34;3.10;;;2.90;;
2061;SDS011;11070;51.336;12.340;2023-07-29T06:40:59;3.67;;;3.47;;
2061;SDS011;11070;51.336;12.340;2023-07-29T06:43:25;3.43;;;3.23;;
2061;SDS011;11070;51.336;12.340;2023-07-29T06:45:50;3.00;;;2.90;;
2061;SDS011;11070;51.336;12.340;2023-07-29T06:48:16;2.90;;;2.80;;
2061;SDS011;11070;51.336;12.340;2023-07-29T06:50:43;3.50;;;3.20;;
2061;SDS011;11070;51.336;12.340;2023-07-29T06:53:09;3.10;;;2.90;;
2061;SDS011;11070;51.336;12.340;2023-07-29T06:55:35;3.00;;;2.80;;
2061;SDS011;11070;51.336;12.340;2023-07-29T06:58:01;3.20;;;3.00;;
2061;SDS011;11070;51.336;12.340;2023-07-29T07:00:27;2.83;;;2.63;;
2061;SDS011;11070;51.336;12.340;2023-07-29T07:02:52;2.77;;;2.67;;
2061;SDS011;11070;51.336;12.340;2023-07-29T07:05:18;4.20;;;2.83;;
2061;SDS011;11070;51.336;12.340;2023-07-29T07:07:44;3.33;;;3.13;;
2061;SDS011;11070;51.336;12.340;2023-07-29T07:10:10;3.50;;;3.30;;
2061;SDS011;11070;51.336;12.340;2023-07-29T07:12:35;3.20;;;3.00;;
2061;SDS011;11070;51.336;12.340;2023-07-29T07:15:01;4.53;;;3.43;;
2061;SDS011;11070;51.336;12.340;2023-07-29T07:17:27;2.70;;;2.60;;
2061;SDS011;11070;51.336;12.340;2023-07-29T07:19:52;4.50;;;2.20;;
2061;SDS011;11070;51.336;12.340;2023-07-29T07:22:18;2.70;;;2.60;;
2061;SDS011;11070;51.336;12.340;2023-07-29T07:24:44;2.60;;;2.50;;
2061;SDS011;11070;51.336;12.340;2023-07-29T07:27:09;7.90;;;6.87;;
2061;SDS011;11070;51.336;12.340;2023-07-29T07:29:35;2.53;;;2.43;;
2061;SDS011;11070;51.336;12.340;2023-07-29T07:32:01;3.07;;;2.87;;
2061;SDS011;11070;51.336;12.340;2023-07-29T07:34:27;2.97;;;2.77;;
2061;SDS011;11070;51.336;12.340;2023-07-29T07:36:53;3.80;;;3.60;;
2061;SDS011;11070;51.336;12.340;2023-07-29T07:39:18;3.10;;;2.90;;
2061;SDS011;11070;51.336;12.340;2023-07-29T07:41:44;2.80;;;2.67;;
2061;SDS011;11070;51.336;12.340;2023-07-29T07:44:10;2.80;;;2.70;;
2061;SDS011;11070;51.336;12.340;2023-07-29T07:46:37;2.77;;;2.63;;
2061;SDS011;11070;51.336;12.340;2023-07-29T07:49:03;3.43;;;3.03;;
2061;SDS011;11070;51.336;12.340;2023-07-29T07:51:29;3.17;;;2.97;;
2061;SDS011;11070;51.336;12.340;2023-07-29T07:53:55;3.20;;;3.00;;
2061;SDS011;11070;51.336;12.340;2023-07-29T07:56:20;3.17;;;2.90;;
2061;SDS011;11070;51.336;12.340;2023-07-29T07:58:46;3.30;;;3.10;;
2061;SDS011;11070;51.336;12.340;2023-07-29T08:01:12;2.90;;;2.80;;
2061;SDS011;11070;51.336;12.340;2023-07-29T08:03:40;2.90;;;2.80;;
2061;SDS011;11070;51.336;12.340;2023-07-29T08:06:06;3.37;;;3.17;;
2061;SDS011;11070;51.336;12.340;2023-07-29T08:08:31;2.60;;;2.50;;
2061;SDS011;11070;51.336;12.340;2023-07-29T08:10:57;2.57;;;2.47;;
2061;SDS011;11070;51.336;12.340;2023-07-29T08:13:23;3.10;;;2.90;;
2061;SDS011;11070;51.336;12.340;2023-07-29T08:15:50;3.07;;;2.97;;
2061;SDS011;11070;51.336;12.340;2023-07-29T08:18:17;2.60;;;2.50;;
2061;SDS011;11070;51.336;12.340;2023-07-29T08:20:53;2.90;;;2.70;;
2061;SDS011;11070;51.336;12.340;2023-07-29T08:23:20;2.43;;;2.20;;
2061;SDS011;11070;51.336;12.340;2023-07-29T08:25:51;2.43;;;2.33;;
2061;SDS011;11070;51.336;12.340;2023-07-29T08:28:24;2.47;;;2.37;;
2061;SDS011;11070;51.336;12.340;2023-07-29T08:30:50;2.77;;;2.50;;
2061;SDS011;11070;51.336;12.340;2023-07-29T08:33:15;2.40;;;2.30;;
2061;SDS011;11070;51.336;12.340;2023-07-29T08:35:41;2.40;;;2.30;;
2061;SDS011;11070;51.336;12.340;2023-07-29T08:38:07;2.30;;;2.20;;
2061;SDS011;11070;51.336;12.340;2023-07-29T08:40:33;2.80;;;2.70;;
2061;SDS011;11070;51.336;12.340;2023-07-29T08:43:03;3.10;;;2.40;;
2061;SDS011;11070;51.336;12.340;2023-07-29T08:45:34;2.97;;;2.60;;
2061;SDS011;11070;51.336;12.340;2023-07-29T08:48:02;3.00;;;2.57;;
2061;SDS011;11070;51.336;12.340;2023-07-29T08:50:30;2.83;;;2.63;;
2061;SDS011;11070;51.336;12.340;2023-07-29T08:52:57;2.50;;;2.30;;
2061;SDS011;11070;51.336;12.340;2023-07-29T08:55:26;2.30;;;2.20;;
2061;SDS011;11070;51.336;12.340;2023-07-29T08:57:51;2.40;;;2.20;;
2061;SDS011;11070;51.336;12.340;2023-07-29T09:00:18;2.37;;;2.27;;
2061;SDS011;11070;51.336;12.340;2023-07-29T09:02:45;2.17;;;2.07;;
2061;SDS011;11070;51.336;12.340;2023-07-29T09:05:11;2.83;;;2.63;;
2061;SDS011;11070;51.336;12.340;2023-07-29T09:07:36;2.93;;;2.50;;
2061;SDS011;11070;51.336;12.340;2023-07-29T09:10:03;2.30;;;2.20;;
2061;SDS011;11070;51.336;12.340;2023-07-29T09:12:29;3.03;;;2.10;;
2061;SDS011;11070;51.336;12.340;2023-07-29T09:14:55;2.10;;;2.00;;
2061;SDS011;11070;51.336;12.340;2023-07-29T09:17:20;1.93;;;1.67;;
2061;SDS011;11070;51.336;12.340;2023-07-29T09:19:50;2.00;;;1.40;;
2061;SDS011;11070;51.336;12.340;2023-07-29T09:22:19;1.87;;;1.30;;
2061;SDS011;11070;51.336;12.340;2023-07-29T09:24:46;3.23;;;2.90;;
2061;SDS011;11070;51.336;12.340;2023-07-29T09:27:24;1.30;;;1.20;;
2061;SDS011;11070;51.336;12.340;2023-07-29T09:29:56;1.53;;;1.40;;
2061;SDS011;11070;51.336;12.340;2023-07-29T09:32:23;2.47;;;1.43;;
2061;SDS011;11070;51.336;12.340;2023-07-29T09:34:50;1.50;;;1.40;;
2061;SDS011;11070;51.336;12.340;2023-07-29T09:37:22;1.73;;;1.63;;
2061;SDS011;11070;51.336;12.340;2023-07-29T09:39:49;1.77;;;1.67;;
2061;SDS011;11070;51.336;12.340;2023-07-29T09:42:22;1.70;;;1.60;;
2061;SDS011;11070;51.336;12.340;2023-07-29T09:44:49;1.30;;;1.20;;
2061;SDS011;11070;51.336;12.340;2023-07-29T09:47:24;1.57;;;1.47;;
2061;SDS011;11070;51.336;12.340;2023-07-29T09:49:51;1.50;;;1.40;;
2061;SDS011;11070;51.336;12.340;2023-07-29T09:52:18;1.80;;;1.70;;
2061;SDS011;11070;51.336;12.340;2023-07-29T09:54:45;1.63;;;1.40;;
2061;SDS011;11070;51.336;12.340;2023-07-29T09:57:16;1.90;;;1.80;;
2061;SDS011;11070;51.336;12.340;2023-07-29T09:59:43;1.33;;;1.23;;
2061;SDS011;11070;51.336;12.340;2023-07-29T10:02:21;1.47;;;1.37;;
2061;SDS011;11070;51.336;12.340;2023-07-29T10:04:48;1.50;;;1.30;;
2061;SDS011;11070;51.336;12.340;2023-07-29T10:07:15;1.63;;;1.50;;
2061;SDS011;11070;51.336;12.340;2023-07-29T10:09:41;1.43;;;1.33;;
2061;SDS011;11070;51.336;12.340;2023-07-29T10:12:08;1.50;;;1.40;;
2061;SDS011;11070;51.336;12.340;2023-07-29T10:14:36;1.47;;;1.37;;
2061;SDS011;11070;51.336;12.340;2023-07-29T10:17:04;2.80;;;1.70;;
2061;SDS011;11070;51.336;12.340;2023-07-29T10:19:31;1.43;;;1.33;;
2061;SDS011;11070;51.336;12.340;2023-07-29T10:21:58;2.13;;;1.20;;
2061;SDS011;11070;51.336;12.340;2023-07-29T10:24:32;1.67;;;1.33;;
2061;SDS011;11070;51.336;12.340;2023-07-29T10:26:59;2.43;;;1.40;;
2061;SDS011;11070;51.336;12.340;2023-07-29T10:29:32;1.97;;;1.40;;
2061;SDS011;11070;51.336;12.340;2023-07-29T10:32:04;1.50;;;1.40;;
2061;SDS011;11070;51.336;12.340;2023-07-29T10:34:31;1.47;;;1.30;;
2061;SDS011;11070;51.336;12.340;2023-07-29T10:36:59;1.60;;;1.50;;
2061;SDS011;11070;51.336;12.340;2023-07-29T10:39:25;1.43;;;1.33;;
2061;SDS011;11070;51.336;12.340;2023-07-29T10:41:58;1.57;;;1.47;;
2061;SDS011;11070;51.336;12.340;2023-07-29T10:49:39;2.00;;;1.33;;
2061;SDS011;11070;51.336;12.340;2023-07-29T10:52:06;1.47;;;1.30;;
2061;SDS011;11070;51.336;12.340;2023-07-29T10:54:31;1.50;;;1.40;;
2061;SDS011;11070;51.336;12.340;2023-07-29T10:57:13;1.60;;;1.50;;
2061;SDS011;11070;51.336;12.340;2023-07-29T10:59:55;1.60;;;1.50;;
2061;SDS011;11070;51.336;12.340;2023-07-29T11:02:27;1.67;;;1.57;;
2061;SDS011;11070;51.336;12.340;2023-07-29T11:04:55;1.70;;;1.60;;
2061;SDS011;11070;51.336;12.340;2023-07-29T11:07:24;1.50;;;1.40;;
2061;SDS011;11070;51.336;12.340;2023-07-29T11:10:00;2.50;;;1.60;;
2061;SDS011;11070;51.336;12.340;2023-07-29T11:12:37;3.03;;;1.70;;
2061;SDS011;11070;51.336;12.340;2023-07-29T11:17:40;1.93;;;1.80;;
2061;SDS011;11070;51.336;12.340;2023-07-29T11:20:08;3.47;;;1.70;;
2061;SDS011;11070;51.336;12.340;2023-07-29T11:22:35;1.80;;;1.70;;
2061;SDS011;11070;51.336;12.340;2023-07-29T11:25:02;2.17;;;1.97;;
2061;SDS011;11070;51.336;12.340;2023-07-29T11:27:28;1.80;;;1.70;;
2061;SDS011;11070;51.336;12.340;2023-07-29T11:29:57;2.10;;;2.00;;
2061;SDS011;11070;51.336;12.340;2023-07-29T11:32:24;1.93;;;1.80;;
2061;SDS011;11070;51.336;12.340;2023-07-29T11:34:50;2.00;;;1.80;;
2061;SDS011;11070;51.336;12.340;2023-07-29T11:37:16;2.03;;;1.93;;
2061;SDS011;11070;51.336;12.340;2023-07-29T11:39:42;2.13;;;2.03;;
2061;SDS011;11070;51.336;12.340;2023-07-29T11:42:12;1.90;;;1.80;;
2061;SDS011;11070;51.336;12.340;2023-07-29T11:44:39;3.17;;;2.00;;
2061;SDS011;11070;51.336;12.340;2023-07-29T11:47:11;2.10;;;2.00;;
2061;SDS011;11070;51.336;12.340;2023-07-29T11:49:41;2.07;;;1.97;;
2061;SDS011;11070;51.336;12.340;2023-07-29T11:52:09;2.33;;;2.17;;
2061;SDS011;11070;51.336;12.340;2023-07-29T11:54:37;2.20;;;2.00;;
2061;SDS011;11070;51.336;12.340;2023-07-29T11:57:06;2.20;;;2.00;;
2061;SDS011;11070;51.336;12.340;2023-07-29T11:59:36;2.43;;;1.90;;
2061;SDS011;11070;51.336;12.340;2023-07-29T12:02:08;2.00;;;1.90;;
2061;SDS011;11070;51.336;12.340;2023-07-29T12:04:37;2.03;;;1.93;;
2061;SDS011;11070;51.336;12.340;2023-07-29T12:07:03;2.60;;;2.37;;
2061;SDS011;11070;51.336;12.340;2023-07-29T12:09:30;2.20;;;2.10;;
2061;SDS011;11070;51.336;12.340;2023-07-29T12:11:56;2.10;;;2.00;;
2061;SDS011;11070;51.336;12.340;2023-07-29T12:14:25;2.07;;;1.97;;
2061;SDS011;11070;51.336;12.340;2023-07-29T12:16:53;2.00;;;1.90;;
2061;SDS011;11070;51.336;12.340;2023-07-29T12:19:19;2.20;;;2.10;;
2061;SDS011;11070;51.336;12.340;2023-07-29T12:21:47;2.40;;;2.30;;
2061;SDS011;11070;51.336;12.340;2023-07-29T12:24:13;2.03;;;1.83;;
2061;SDS011;11070;51.336;12.340;2023-07-29T12:26:39;2.10;;;2.00;;
2061;SDS011;11070;51.336;12.340;2023-07-29T12:29:16;2.30;;;2.10;;
2061;SDS011;11070;51.336;12.340;2023-07-29T12:31:44;2.63;;;2.43;;
2061;SDS011;11070;51.336;12.340;2023-07-29T12:34:17;2.37;;;2.10;;
2061;SDS011;11070;51.336;12.340;2023-07-29T12:36:46;1.90;;;1.80;;
2061;SDS011;11070;51.336;12.340;2023-07-29T12:39:17;1.73;;;1.63;;
2061;SDS011;11070;51.336;12.340;2023-07-29T12:41:48;2.20;;;2.00;;
2061;SDS011;11070;51.336;12.340;2023-07-29T12:44:15;2.00;;;1.90;;
2061;SDS011;11070;51.336;12.340;2023-07-29T12:46:43;2.17;;;1.90;;
2061;SDS011;11070;51.336;12.340;2023-07-29T12:49:09;2.07;;;1.80;;
2061;SDS011;11070;51.336;12.340;2023-07-29T12:51:35;2.93;;;1.90;;
2061;SDS011;11070;51.336;12.340;2023-07-29T12:54:02;2.10;;;1.90;;
2061;SDS011;11070;51.336;12.340;2023-07-29T12:56:31;1.50;;;1.40;;
2061;SDS011;11070;51.336;12.340;2023-07-29T12:58:57;1.60;;;1.50;;
2061;SDS011;11070;51.336;12.340;2023-07-29T13:01:24;1.90;;;1.80;;
2061;SDS011;11070;51.336;12.340;2023-07-29T13:03:50;2.07;;;1.77;;
2061;SDS011;11070;51.336;12.340;2023-07-29T13:06:16;2.03;;;1.63;;
2061;SDS011;11070;51.336;12.340;2023-07-29T13:08:42;1.73;;;1.63;;
2061;SDS011;11070;51.336;12.340;2023-07-29T13:11:10;1.70;;;1.60;;
2061;SDS011;11070;51.336;12.340;2023-07-29T13:13:36;2.20;;;2.10;;
2061;SDS011;11070;51.336;12.340;2023-07-29T13:16:01;1.63;;;1.50;;
2061;SDS011;11070;51.336;12.340;2023-07-29T13:18:27;1.90;;;1.80;;
2061;SDS011;11070;51.336;12.340;2023-07-29T13:20:53;2.00;;;1.90;;
2061;SDS011;11070;51.336;12.340;2023-07-29T13:23:19;3.63;;;2.00;;
2061;SDS011;11070;51.336;12.340;2023-07-29T13:25:46;2.17;;;1.80;;
2061;SDS011;11070;51.336;12.340;2023-07-29T13:28:12;2.30;;;1.90;;
2061;SDS011;11070;51.336;12.340;2023-07-29T13:30:38;1.90;;;1.80;;
2061;SDS011;11070;51.336;12.340;2023-07-29T13:33:04;1.70;;;1.60;;
2061;SDS011;11070;51.336;12.340;2023-07-29T13:35:33;1.80;;;1.70;;
2061;SDS011;11070;51.336;12.340;2023-07-29T13:37:59;1.90;;;1.80;;
2061;SDS011;11070;51.336;12.340;2023-07-29T13:40:25;1.63;;;1.47;;
2061;SDS011;11070;51.336;12.340;2023-07-29T13:42:51;1.97;;;1.87;;
2061;SDS011;11070;51.336;12.340;2023-07-29T13:45:17;2.00;;;1.90;;
2061;SDS011;11070;51.336;12.340;2023-07-29T13:47:43;1.90;;;1.80;;
2061;SDS011;11070;51.336;12.340;2023-07-29T13:50:09;1.70;;;1.60;;
2061;SDS011;11070;51.336;12.340;2023-07-29T13:52:35;1.80;;;1.70;;
2061;SDS011;11070;51.336;12.340;2023-07-29T13:55:02;2.00;;;1.90;;
2061;SDS011;11070;51.336;12.340;2023-07-29T13:57:28;1.80;;;1.70;;
2061;SDS011;11070;51.336;12.340;2023-07-29T13:59:54;2.10;;;2.00;;
2061;SDS011;11070;51.336;12.340;2023-07-29T14:02:20;2.50;;;1.80;;
2061;SDS011;11070;51.336;12.340;2023-07-29T14:04:46;2.03;;;1.93;;
2061;SDS011;11070;51.336;12.340;2023-07-29T14:07:11;2.10;;;2.00;;
2061;SDS011;11070;51.336;12.340;2023-07-29T14:09:37;2.80;;;1.97;;
2061;SDS011;11070;51.336;12.340;2023-07-29T14:12:03;1.77;;;1.67;;
2061;SDS011;11070;51.336;12.340;2023-07-29T14:14:30;2.40;;;1.90;;
2061;SDS011;11070;51.336;12.340;2023-07-29T14:16:56;2.10;;;2.00;;
2061;SDS011;11070;51.336;12.340;2023-07-29T14:19:22;2.10;;;1.90;;
2061;SDS011;11070;51.336;12.340;2023-07-29T14:21:48;3.93;;;1.77;;
2061;SDS011;11070;51.336;12.340;2023-07-29T14:24:14;1.70;;;1.60;;
2061;SDS011;11070;51.336;12.340;2023-07-29T14:26:40;1.90;;;1.80;;
2061;SDS011;11070;51.336;12.340;2023-07-29T14:29:06;2.30;;;1.90;;
2061;SDS011;11070;51.336;12.340;2023-07-29T14:31:32;2.13;;;1.93;;
2061;SDS011;11070;51.336;12.340;2023-07-29T14:33:58;2.80;;;2.57;;
2061;SDS011;11070;51.336;12.340;2023-07-29T14:36:24;2.50;;;2.30;;
2061;SDS011;11070;51.336;12.340;2023-07-29T14:38:50;3.80;;;2.80;;
2061;SDS011;11070;51.336;12.340;2023-07-29T14:41:16;2.77;;;2.50;;
2061;SDS011;11070;51.336;12.340;2023-07-29T14:43:42;3.83;;;2.70;;
2061;SDS011;11070;51.336;12.340;2023-07-29T14:46:07;2.67;;;2.47;;
2061;SDS011;11070;51.336;12.340;2023-07-29T14:48:33;4.07;;;2.33;;
2061;SDS011;11070;51.336;12.340;2023-07-29T14:50:58;3.67;;;3.10;;
2061;SDS011;11070;51.336;12.340;2023-07-29T14:53:24;4.67;;;2.90;;
2061;SDS011;11070;51.336;12.340;2023-07-29T14:55:50;2.40;;;2.30;;